»·PEaware :: AAL6234 KSFO-KLAS

AAL6234 :: KSFO-KLAS

FLIGHT INFORMATION

Flight Status: Arrived
Operator:
American Airlines
More flights by this operator :: More flights under this callsign
Pilot: Tamer M. (30101)
Aircraft: AIRBUS A320
(A320)
More flights by this aircraft type
Origin: KSFO San Francisco Intl
United States
Destination: KLAS McCarran Intl
United States
More flights between these airports :: More routes between these airports
Route: SSTIK4 NTELL Q162 ESSAA BTY SUNST4
File this flight plan on PilotEdge
Remarks:
Altitude:
(Current/Filed)
27,000ft
Speed:
(Current/Filed)
450kts
Departed: 14-Jan-21 01:05 PM
Arrived: 14-Jan-21 02:19 PM
Distance/Time
Traveled:
359nm/1:13
Distance/Time
To Go:
Arrived

Flight Plot

Page will automatically refresh every two minutes.

Flight plan parsing failed; only flown route is shown


Map Options




Map Legend


Flown Route
Filed Route
Departure Airport
Arrival Airport
Navaid (VOR, NDB)
Fix

Horizontal Profiles

Position Reports

Time Latitude Longitude Heading Altitude Ground
Speed
14-Jan-21 12:20 37.612274 -122.384066 30 32ft 0kts
14-Jan-21 12:21 37.612274 -122.384066 30 32ft 0kts
14-Jan-21 12:22 37.612274 -122.384066 30 32ft 0kts
14-Jan-21 12:23 37.612274 -122.384066 30 32ft 0kts
14-Jan-21 12:24 37.612274 -122.384066 30 32ft 0kts
14-Jan-21 12:25 37.612274 -122.384066 30 32ft 0kts
14-Jan-21 12:26 37.612274 -122.384066 30 32ft 0kts
14-Jan-21 12:27 37.612274 -122.384066 30 32ft 0kts
14-Jan-21 12:28 37.612274 -122.384066 30 32ft 0kts
14-Jan-21 12:29 37.612274 -122.384066 30 32ft 0kts
14-Jan-21 12:30 37.612274 -122.384066 30 32ft 0kts
14-Jan-21 12:31 37.612274 -122.384066 30 32ft 0kts
14-Jan-21 12:32 37.612274 -122.384066 30 32ft 0kts
14-Jan-21 12:33 37.612274 -122.384066 30 32ft 0kts
14-Jan-21 12:34 37.612274 -122.384066 30 32ft 0kts
14-Jan-21 12:35 37.612274 -122.384066 30 32ft 0kts
14-Jan-21 12:36 37.612274 -122.384066 30 32ft 0kts
14-Jan-21 12:37 37.612274 -122.384066 30 32ft 0kts
14-Jan-21 12:38 37.612274 -122.384066 30 32ft 0kts
14-Jan-21 12:39 37.612274 -122.384066 30 32ft 0kts
14-Jan-21 12:40 37.612274 -122.384066 30 32ft 0kts
14-Jan-21 12:41 37.612274 -122.384066 30 32ft 0kts
14-Jan-21 12:42 37.612274 -122.384066 30 32ft 0kts
14-Jan-21 12:43 37.612274 -122.384066 30 32ft 0kts
14-Jan-21 12:44 37.612274 -122.384066 30 32ft 0kts
14-Jan-21 12:45 37.612274 -122.384066 30 32ft 0kts
14-Jan-21 12:46 37.612274 -122.384066 30 32ft 0kts
14-Jan-21 12:47 37.612274 -122.384066 30 32ft 0kts
14-Jan-21 12:48 37.612274 -122.384066 30 32ft 0kts
14-Jan-21 12:49 37.612274 -122.384066 30 32ft 0kts
14-Jan-21 12:50 37.611944 -122.384417 65 32ft 2kts
14-Jan-21 12:51 37.611898 -122.384679 87 32ft 0kts
14-Jan-21 12:52 37.611898 -122.384679 87 32ft 0kts
14-Jan-21 12:53 37.611898 -122.384679 87 32ft 0kts
14-Jan-21 12:54 37.611898 -122.384679 87 32ft 0kts
14-Jan-21 12:55 37.611898 -122.384679 87 32ft 0kts
14-Jan-21 12:56 37.611898 -122.384679 87 32ft 0kts
14-Jan-21 12:57 37.611899 -122.384668 87 32ft 0kts
14-Jan-21 12:58 37.611883 -122.384499 110 32ft 0kts
14-Jan-21 12:59 37.611115 -122.383621 152 32ft 6kts
14-Jan-21 13:00 37.609408 -122.383478 119 32ft 0kts
14-Jan-21 13:01 37.609408 -122.383478 119 32ft 0kts
14-Jan-21 13:02 37.609408 -122.383478 119 32ft 0kts
14-Jan-21 13:03 37.609624 -122.381798 31 32ft 16kts
14-Jan-21 13:04 37.647719 -122.364649 5 2466ft 206kts
14-Jan-21 13:05 37.709593 -122.379169 307 6277ft 270kts
14-Jan-21 13:06 37.690152 -122.461774 204 9874ft 291kts
14-Jan-21 13:07 37.603687 -122.469782 182 11851ft 351kts
14-Jan-21 13:08 37.503193 -122.468813 162 15139ft 375kts
14-Jan-21 13:09 37.433018 -122.377035 125 17972ft 393kts
14-Jan-21 13:10 37.395212 -122.257431 103 20432ft 407kts
14-Jan-21 13:11 37.372280 -122.140826 103 22417ft 419kts
14-Jan-21 13:12 37.345240 -122.005310 103 23338ft 422kts
14-Jan-21 13:13 37.317240 -121.866125 103 24867ft 436kts
14-Jan-21 13:14 37.287973 -121.721607 103 26709ft 448kts
14-Jan-21 13:15 37.258280 -121.575845 103 27347ft 444kts
14-Jan-21 13:16 37.225988 -121.418565 103 27342ft 446kts
14-Jan-21 13:17 37.194994 -121.268658 104 27338ft 445kts
14-Jan-21 13:18 37.163675 -121.118238 103 27333ft 446kts
14-Jan-21 13:19 37.132126 -120.967756 102 27386ft 445kts
14-Jan-21 13:20 37.100805 -120.819335 102 27381ft 442kts
14-Jan-21 13:21 37.070675 -120.677525 102 27342ft 440kts
14-Jan-21 13:22 37.041959 -120.543216 102 27334ft 440kts
14-Jan-21 13:23 37.021379 -120.447453 102 27340ft 441kts
14-Jan-21 13:24 36.991000 -120.306829 103 27361ft 441kts
14-Jan-21 13:25 36.960617 -120.167063 103 27378ft 442kts
14-Jan-21 13:26 36.929466 -120.024651 103 27385ft 442kts
14-Jan-21 13:27 36.908212 -119.883738 82 27384ft 439kts
14-Jan-21 13:28 36.944879 -119.751430 65 27398ft 432kts
14-Jan-21 13:29 36.987260 -119.622100 65 27352ft 430kts
14-Jan-21 13:30 37.029546 -119.492062 64 27337ft 428kts
14-Jan-21 13:31 37.071931 -119.361101 64 27346ft 428kts
14-Jan-21 13:33 37.115652 -119.225395 65 27379ft 427kts
14-Jan-21 13:34 37.163106 -119.077392 65 27469ft 454kts
14-Jan-21 13:35 37.215578 -118.912666 65 27468ft 483kts
14-Jan-21 13:36 37.265637 -118.754829 65 27469ft 489kts
14-Jan-21 13:37 37.289069 -118.586183 80 27398ft 493kts
14-Jan-21 13:38 37.304671 -118.415317 80 27358ft 492kts
14-Jan-21 13:39 37.319996 -118.244811 80 27372ft 493kts
14-Jan-21 13:40 37.335108 -118.073857 80 27397ft 494kts
14-Jan-21 13:41 37.349139 -117.901577 85 27411ft 497kts
14-Jan-21 13:42 37.336094 -117.727453 93 27422ft 500kts
14-Jan-21 13:43 37.320534 -117.554228 93 27412ft 500kts
14-Jan-21 13:44 37.304582 -117.380421 94 27454ft 499kts
14-Jan-21 13:45 37.245853 -117.223919 126 27156ft 488kts
14-Jan-21 13:46 37.166363 -117.093642 126 24513ft 476kts
14-Jan-21 13:47 37.081900 -116.957839 131 24451ft 510kts
14-Jan-21 13:48 36.966659 -116.862586 150 24468ft 467kts
14-Jan-21 13:48 36.877825 -116.800974 150 24402ft 454kts
14-Jan-21 13:49 36.773582 -116.709545 129 24371ft 458kts
14-Jan-21 13:51 36.676740 -116.570969 129 24091ft 435kts
14-Jan-21 13:51 36.613556 -116.481079 129 23388ft 400kts
14-Jan-21 13:52 36.540971 -116.378292 129 22411ft 393kts
14-Jan-21 13:53 36.469311 -116.277113 129 21446ft 387kts
14-Jan-21 13:54 36.399327 -116.178559 129 20119ft 376kts
14-Jan-21 13:55 36.330921 -116.082515 129 18723ft 370kts
14-Jan-21 13:56 36.263331 -115.987883 129 17327ft 362kts
14-Jan-21 13:57 36.199820 -115.895953 114 16301ft 330kts
14-Jan-21 13:58 36.166066 -115.792611 107 15212ft 325kts
14-Jan-21 13:59 36.132858 -115.689436 107 13899ft 317kts
14-Jan-21 14:00 36.100410 -115.588950 107 12872ft 312kts
14-Jan-21 14:01 36.068590 -115.490787 107 11923ft 292kts
14-Jan-21 14:02 36.039619 -115.401562 107 11133ft 278kts
14-Jan-21 14:03 36.026474 -115.311727 91 10272ft 266kts
14-Jan-21 14:04 36.020032 -115.222585 91 9252ft 261kts
14-Jan-21 14:05 36.013888 -115.133838 91 8290ft 255kts
14-Jan-21 14:06 36.012689 -115.052418 57 7994ft 224kts
14-Jan-21 14:07 36.050574 -115.002289 36 7986ft 190kts
14-Jan-21 14:08 36.092802 -114.963861 34 7283ft 190kts
14-Jan-21 14:09 36.140604 -114.921310 34 4754ft 231kts
14-Jan-21 14:10 36.191207 -114.887911 344 4004ft 180kts
14-Jan-21 14:11 36.213143 -114.928949 287 3982ft 160kts
14-Jan-21 14:12 36.224850 -114.987615 288 3980ft 177kts
14-Jan-21 14:13 36.227311 -115.046485 221 3979ft 184kts
14-Jan-21 14:14 36.186772 -115.080338 210 3976ft 153kts
14-Jan-21 14:15 36.154655 -115.107432 210 3453ft 132kts
14-Jan-21 14:16 36.125268 -115.133722 225 2764ft 131kts
14-Jan-21 14:17 36.095019 -115.155599 202 2094ft 127kts
14-Jan-21 14:18 36.082583 -115.161156 174 2142ft 0kts
14-Jan-21 14:19 36.082583 -115.161156 174 2142ft 0kts
14-Jan-21 14:20 36.081843 -115.160845 134 2143ft 9kts
14-Jan-21 14:21 36.081619 -115.155084 91 2123ft 13kts
14-Jan-21 14:22 36.082346 -115.153145 25 2116ft 0kts
14-Jan-21 14:23 36.082346 -115.153145 25 2116ft 0kts
14-Jan-21 14:24 36.082346 -115.153145 25 2116ft 0kts

Navigation Log

Ident Type
Flight plan parsing failed, navigation log unavailable